createdAt,value
2018-10-21T00:02:19.841Z,94.80
2018-10-21T00:05:23.933Z,94.50
2018-10-21T00:08:28.067Z,94.50
2018-10-21T00:11:32.210Z,94.60
2018-10-21T00:14:36.363Z,94.60
2018-10-21T00:17:40.494Z,94.60
2018-10-21T00:20:44.682Z,94.50
2018-10-21T00:23:48.808Z,94.70
2018-10-21T00:26:52.958Z,94.70
2018-10-21T00:29:57.121Z,94.90
2018-10-21T00:33:01.301Z,94.70
2018-10-21T00:36:05.904Z,94.90
2018-10-21T00:39:12.322Z,95.00
2018-10-21T00:42:16.378Z,95.20
2018-10-21T00:45:20.583Z,95.00
2018-10-21T00:48:24.687Z,95.10
2018-10-21T00:51:28.774Z,95.60
2018-10-21T00:54:32.879Z,95.70
2018-10-21T00:57:36.974Z,96.00
2018-10-21T01:00:41.077Z,95.80
2018-10-21T01:03:45.162Z,95.90
2018-10-21T01:06:49.279Z,95.60
2018-10-21T01:09:53.381Z,95.30
2018-10-21T01:12:57.481Z,95.30
2018-10-21T01:16:01.743Z,95.30
2018-10-21T01:19:06.274Z,95.20
2018-10-21T01:22:10.384Z,95.00
2018-10-21T01:25:14.503Z,95.40
2018-10-21T01:28:18.599Z,95.10
2018-10-21T01:31:22.703Z,95.30
2018-10-21T01:34:27.002Z,95.10
2018-10-21T01:37:31.107Z,95.00
2018-10-21T01:40:37.187Z,94.60
2018-10-21T01:43:41.291Z,94.90
2018-10-21T01:46:45.386Z,94.80
2018-10-21T01:49:49.539Z,94.90
2018-10-21T01:52:54.375Z,94.90
2018-10-21T01:55:58.518Z,94.70
2018-10-21T01:59:02.663Z,94.90
2018-10-21T02:02:06.811Z,95.10
2018-10-21T02:05:10.956Z,95.20
2018-10-21T02:08:15.093Z,94.90
2018-10-21T02:11:19.225Z,94.90
2018-10-21T02:14:23.367Z,95.40
2018-10-21T02:17:27.525Z,95.10
2018-10-21T02:20:31.670Z,95.20
2018-10-21T02:23:35.881Z,95.50
2018-10-21T02:26:40.048Z,95.20
2018-10-21T02:29:44.482Z,95.00
2018-10-21T02:32:49.325Z,95.10
2018-10-21T02:35:53.463Z,95.10
2018-10-21T02:38:57.654Z,95.40
2018-10-21T02:42:01.744Z,94.80
2018-10-21T02:45:06.023Z,95.10
2018-10-21T02:48:10.130Z,95.20
2018-10-21T02:51:14.396Z,95.20
2018-10-21T02:54:22.639Z,95.40
2018-10-21T02:57:26.771Z,94.80
2018-10-21T03:00:30.916Z,95.40
2018-10-21T03:03:35.060Z,95.70
2018-10-21T03:06:39.198Z,95.10
2018-10-21T03:09:43.328Z,95.00
2018-10-21T03:12:47.466Z,95.00
2018-10-21T03:15:51.596Z,95.10
2018-10-21T03:18:55.752Z,95.20
2018-10-21T03:21:59.891Z,95.10
2018-10-21T03:25:04.043Z,95.20
2018-10-21T03:28:08.186Z,95.40
2018-10-21T03:31:12.390Z,95.20
2018-10-21T03:34:16.514Z,95.50
2018-10-21T03:37:20.659Z,95.50
2018-10-21T03:40:24.807Z,95.50
2018-10-21T03:43:28.956Z,95.10
2018-10-21T03:46:33.086Z,95.30
2018-10-21T03:49:37.242Z,95.20
2018-10-21T03:52:41.389Z,95.40
2018-10-21T03:55:45.561Z,95.80
2018-10-21T03:58:49.702Z,95.50
2018-10-21T04:01:53.850Z,95.20
2018-10-21T04:04:57.997Z,95.40
2018-10-21T04:08:02.131Z,95.50
2018-10-21T04:11:06.390Z,95.40
2018-10-21T04:14:10.523Z,95.20
2018-10-21T04:17:14.662Z,95.50
2018-10-21T04:20:18.785Z,95.20
2018-10-21T04:23:22.925Z,95.00
2018-10-21T04:26:27.078Z,95.10
2018-10-21T04:29:31.227Z,95.20
2018-10-21T04:32:36.350Z,95.50
2018-10-21T04:35:40.570Z,95.60
2018-10-21T04:40:09.183Z,95.50
2018-10-21T04:43:13.385Z,95.00
2018-10-21T04:46:17.611Z,94.80
2018-10-21T04:49:21.697Z,95.00
2018-10-21T04:52:26.190Z,95.00
2018-10-21T04:55:30.345Z,95.20
2018-10-21T04:58:34.474Z,95.10
2018-10-21T05:01:38.622Z,95.20
2018-10-21T05:04:42.767Z,95.40
2018-10-21T05:07:46.927Z,95.50
2018-10-21T05:10:51.074Z,95.30
2018-10-21T05:13:55.222Z,95.30
2018-10-21T05:16:59.374Z,95.60
2018-10-21T05:20:03.519Z,96.00
2018-10-21T05:23:07.661Z,96.00
2018-10-21T05:26:11.794Z,95.90
2018-10-21T05:29:15.938Z,96.10
2018-10-21T05:32:20.096Z,96.20
2018-10-21T05:35:24.233Z,96.60
2018-10-21T05:38:28.370Z,96.80
2018-10-21T05:41:32.499Z,96.80
2018-10-21T05:44:36.645Z,97.00
2018-10-21T05:47:41.207Z,97.00
2018-10-21T05:50:45.372Z,96.90
2018-10-21T05:53:49.518Z,96.80
2018-10-21T05:56:53.646Z,96.80
2018-10-21T05:59:57.850Z,95.80
2018-10-21T06:03:02.155Z,96.30
2018-10-21T06:06:06.190Z,96.50
2018-10-21T06:09:11.870Z,97.00
2018-10-21T06:12:16.031Z,96.80
2018-10-21T06:15:20.179Z,96.40
2018-10-21T06:18:26.582Z,96.60
2018-10-21T06:21:30.730Z,96.40
2018-10-21T06:24:34.885Z,96.30
2018-10-21T06:27:39.844Z,96.50
2018-10-21T06:30:43.978Z,96.40
2018-10-21T06:33:48.196Z,96.40
2018-10-21T06:36:52.380Z,96.40
2018-10-21T06:39:56.522Z,96.50
2018-10-21T06:43:00.658Z,96.40
2018-10-21T06:46:04.800Z,96.00
2018-10-21T06:49:09.020Z,96.00
2018-10-21T06:52:13.440Z,96.50
2018-10-21T06:55:17.584Z,96.70
2018-10-21T06:58:21.734Z,97.40
2018-10-21T07:01:25.890Z,97.80
2018-10-21T07:04:30.062Z,97.90
2018-10-21T07:07:34.190Z,98.00
2018-10-21T07:10:38.350Z,97.90
2018-10-21T07:13:42.717Z,97.70
2018-10-21T07:16:46.925Z,97.90
2018-10-21T07:19:51.022Z,98.00
2018-10-21T07:22:55.158Z,98.00
2018-10-21T07:25:59.494Z,97.90
2018-10-21T07:29:03.638Z,98.00
2018-10-21T07:32:07.794Z,97.70
2018-10-21T07:35:13.587Z,97.50
2018-10-21T07:38:17.721Z,97.90
2018-10-21T07:41:21.866Z,98.00
2018-10-21T07:44:26.020Z,98.10
2018-10-21T07:47:30.162Z,97.60
2018-10-21T07:50:34.306Z,97.40
2018-10-21T07:53:38.439Z,97.30
2018-10-21T07:56:42.581Z,97.00
2018-10-21T07:59:47.732Z,96.70
2018-10-21T08:02:51.870Z,96.70
2018-10-21T08:06:26.387Z,96.90
2018-10-21T08:09:30.529Z,96.90
2018-10-21T08:12:34.673Z,97.00
2018-10-21T08:15:39.191Z,97.00
2018-10-21T08:18:43.313Z,96.70
2018-10-21T08:21:47.450Z,96.70
2018-10-21T08:24:51.610Z,96.60
2018-10-21T08:27:55.769Z,96.20
2018-10-21T08:30:59.911Z,96.00
2018-10-21T08:34:04.100Z,96.10
2018-10-21T08:37:08.206Z,96.50
2018-10-21T08:40:12.415Z,96.40
2018-10-21T08:43:16.486Z,95.70
2018-10-21T08:46:20.731Z,95.60
2018-10-21T08:49:24.826Z,95.50
2018-10-21T08:52:28.949Z,95.50
2018-10-21T08:55:33.097Z,95.50
2018-10-21T08:58:37.250Z,95.40
2018-10-21T09:01:41.402Z,95.30
2018-10-21T09:04:45.562Z,95.10
2018-10-21T09:07:49.784Z,94.80
2018-10-21T09:10:53.951Z,94.80
2018-10-21T09:13:58.162Z,94.60
2018-10-21T09:17:02.269Z,95.00
2018-10-21T09:20:09.362Z,94.40
2018-10-21T09:23:13.506Z,94.60
2018-10-21T09:26:17.693Z,93.10
2018-10-21T09:29:21.838Z,91.40
2018-10-21T09:32:25.990Z,91.00
2018-10-21T09:35:30.142Z,89.90
2018-10-21T09:38:34.314Z,88.20
2018-10-21T09:41:38.477Z,87.20
2018-10-21T09:44:42.619Z,87.20
2018-10-21T09:47:46.861Z,86.50
2018-10-21T09:50:50.989Z,85.90
2018-10-21T09:53:55.140Z,83.40
2018-10-21T09:56:59.325Z,83.30
2018-10-21T10:00:03.455Z,83.10
2018-10-21T10:03:08.863Z,82.60
2018-10-21T10:06:13.021Z,81.80
2018-10-21T10:09:17.175Z,80.50
2018-10-21T10:12:21.334Z,79.10
2018-10-21T10:15:25.480Z,77.90
2018-10-21T10:18:29.680Z,77.60
2018-10-21T10:21:33.854Z,78.90
2018-10-21T10:24:38.006Z,77.20
2018-10-21T10:27:42.234Z,76.20
2018-10-21T10:30:46.403Z,74.90
2018-10-21T10:33:50.545Z,75.40
2018-10-21T10:36:54.750Z,76.70
2018-10-21T10:39:58.904Z,76.10
2018-10-21T10:43:03.024Z,75.40
2018-10-21T10:46:07.216Z,73.50
2018-10-21T10:49:11.375Z,72.60
2018-10-21T10:52:15.574Z,73.80
2018-10-21T10:55:19.642Z,73.90
2018-10-21T10:58:23.805Z,72.20
2018-10-21T11:01:27.938Z,70.60
2018-10-21T11:04:32.074Z,68.70
2018-10-21T11:07:36.226Z,68.60
2018-10-21T11:10:40.468Z,69.60
2018-10-21T11:13:44.602Z,69.10
2018-10-21T11:16:48.813Z,67.90
2018-10-21T11:19:52.938Z,69.50
2018-10-21T11:22:57.251Z,65.80
2018-10-21T11:26:01.527Z,65.90
2018-10-21T11:29:05.914Z,68.10
2018-10-21T11:32:10.110Z,66.70
2018-10-21T11:35:14.198Z,64.70
2018-10-21T11:38:18.444Z,66.40
2018-10-21T11:41:22.833Z,65.70
2018-10-21T11:44:26.958Z,63.40
2018-10-21T11:47:31.098Z,63.30
2018-10-21T11:50:35.259Z,63.00
2018-10-21T11:53:39.401Z,61.20
2018-10-21T11:56:43.556Z,62.70
2018-10-21T11:59:47.675Z,59.50
2018-10-21T12:02:51.812Z,60.60
2018-10-21T12:05:56.006Z,60.90
2018-10-21T12:09:00.188Z,60.80
2018-10-21T12:12:04.331Z,57.60
2018-10-21T12:15:08.570Z,57.80
2018-10-21T12:18:12.769Z,56.20
2018-10-21T12:21:17.022Z,56.90
2018-10-21T12:24:21.258Z,55.70
2018-10-21T12:27:26.124Z,57.40
2018-10-21T12:30:30.270Z,57.00
2018-10-21T12:33:38.660Z,56.90
2018-10-21T12:36:42.815Z,56.10
2018-10-21T12:39:47.119Z,57.50
2018-10-21T12:42:51.293Z,57.20
2018-10-21T12:45:55.522Z,56.60
2018-10-21T12:48:59.732Z,56.80
2018-10-21T12:52:03.855Z,57.80
2018-10-21T12:55:09.153Z,58.20
2018-10-21T12:58:13.382Z,58.50
2018-10-21T13:01:17.554Z,57.30
2018-10-21T13:04:21.602Z,53.80
2018-10-21T13:07:25.757Z,51.10
2018-10-21T13:10:29.909Z,48.70
2018-10-21T13:13:34.067Z,47.80
2018-10-21T13:16:38.252Z,45.30
2018-10-21T13:19:43.351Z,43.40
2018-10-21T13:22:47.425Z,42.10
2018-10-21T13:25:51.598Z,40.60
2018-10-21T13:28:55.834Z,38.60
2018-10-21T13:31:59.914Z,38.60
2018-10-21T13:35:04.058Z,37.80
2018-10-21T13:38:08.259Z,40.00
2018-10-21T13:41:12.430Z,39.80
2018-10-21T13:44:16.631Z,40.10
2018-10-21T13:47:20.840Z,40.40
2018-10-21T13:50:25.076Z,41.30
2018-10-21T13:53:29.322Z,39.90
2018-10-21T13:56:33.417Z,38.80
2018-10-21T13:59:37.563Z,39.80
2018-10-21T14:02:41.704Z,39.60
2018-10-21T14:05:45.841Z,41.40
2018-10-21T14:08:50.079Z,40.80
2018-10-21T14:11:54.258Z,40.50
2018-10-21T14:14:58.869Z,41.80
2018-10-21T14:18:02.955Z,41.40
2018-10-21T14:21:07.075Z,42.70
2018-10-21T14:24:11.319Z,42.90
2018-10-21T14:27:15.374Z,44.20
2018-10-21T14:30:19.559Z,45.40
2018-10-21T14:33:23.753Z,46.30
2018-10-21T14:36:27.898Z,47.80
2018-10-21T14:39:32.055Z,48.00
2018-10-21T14:42:36.251Z,47.60
2018-10-21T14:45:40.467Z,49.00
2018-10-21T14:48:44.590Z,49.90
2018-10-21T14:51:48.755Z,51.50
2018-10-21T14:54:52.891Z,52.00
2018-10-21T14:57:57.064Z,51.70
2018-10-21T15:01:01.198Z,52.40
2018-10-21T15:04:05.692Z,53.00
2018-10-21T15:07:09.826Z,53.00
2018-10-21T15:10:14.009Z,54.20
2018-10-21T15:13:18.210Z,55.10
2018-10-21T15:16:22.350Z,55.00
2018-10-21T15:19:26.513Z,55.30
2018-10-21T15:22:30.678Z,56.30
2018-10-21T15:25:34.824Z,55.80
2018-10-21T15:28:38.953Z,55.80
2018-10-21T15:31:43.077Z,56.60
2018-10-21T15:34:47.399Z,57.80
2018-10-21T15:37:51.396Z,57.90
2018-10-21T15:40:55.566Z,56.50
2018-10-21T15:43:59.789Z,57.60
2018-10-21T15:47:03.889Z,57.80
2018-10-21T15:50:08.479Z,60.00
2018-10-21T15:53:12.572Z,61.30
2018-10-21T15:56:16.837Z,60.50
2018-10-21T15:59:20.875Z,61.10
2018-10-21T16:02:25.139Z,61.20
2018-10-21T16:05:29.230Z,59.90
2018-10-21T16:08:33.367Z,59.80
2018-10-21T16:11:37.511Z,60.40
2018-10-21T16:14:41.669Z,60.00
2018-10-21T16:17:46.495Z,59.40
2018-10-21T16:20:50.765Z,60.50
2018-10-21T16:23:54.918Z,60.30
2018-10-21T16:26:59.199Z,60.80
2018-10-21T16:30:03.348Z,61.00
2018-10-21T16:33:07.478Z,61.80
2018-10-21T16:36:11.649Z,61.80
2018-10-21T16:39:15.930Z,63.10
2018-10-21T16:42:19.994Z,64.30
2018-10-21T16:45:24.205Z,65.10
2018-10-21T16:48:28.345Z,66.40
2018-10-21T16:51:32.601Z,67.40
2018-10-21T16:54:36.725Z,68.50
2018-10-21T16:57:40.901Z,69.10
2018-10-21T17:00:45.316Z,70.50
2018-10-21T17:03:49.541Z,71.40
2018-10-21T17:06:53.669Z,72.70
2018-10-21T17:09:58.387Z,71.80
2018-10-21T17:13:02.203Z,72.50
2018-10-21T17:16:07.977Z,72.80
2018-10-21T17:19:12.122Z,73.60
2018-10-21T17:22:16.361Z,74.50
2018-10-21T17:25:20.429Z,74.80
2018-10-21T17:28:24.699Z,75.20
2018-10-21T17:31:28.898Z,75.90
2018-10-21T17:34:33.115Z,78.30
2018-10-21T17:37:37.332Z,78.70
2018-10-21T17:40:41.579Z,78.40
2018-10-21T17:43:45.689Z,78.00
2018-10-21T17:46:49.858Z,78.30
2018-10-21T17:49:54.118Z,78.70
2018-10-21T17:52:58.345Z,79.00
2018-10-21T17:56:02.526Z,79.00
2018-10-21T17:59:06.792Z,79.60
2018-10-21T18:02:10.970Z,79.90
2018-10-21T18:05:15.479Z,80.40
2018-10-21T18:08:19.746Z,80.60
2018-10-21T18:11:24.160Z,81.40
2018-10-21T18:14:28.351Z,81.50
2018-10-21T18:17:32.518Z,81.70
2018-10-21T18:20:36.791Z,82.00
2018-10-21T18:23:40.925Z,82.80
2018-10-21T18:26:45.202Z,82.70
2018-10-21T18:29:49.405Z,83.20
2018-10-21T18:32:53.619Z,83.10
2018-10-21T18:35:57.729Z,83.20
2018-10-21T18:39:01.959Z,83.90
2018-10-21T18:42:06.462Z,84.10
2018-10-21T18:45:12.686Z,84.50
2018-10-21T18:48:16.889Z,85.20
2018-10-21T18:51:20.961Z,86.10
2018-10-21T18:54:25.123Z,85.60
2018-10-21T18:57:29.264Z,85.90
2018-10-21T19:00:33.429Z,86.20
2018-10-21T19:03:37.608Z,87.00
2018-10-21T19:06:41.754Z,86.60
2018-10-21T19:09:45.892Z,87.00
2018-10-21T19:13:00.046Z,86.60
2018-10-21T19:15:54.270Z,86.60
2018-10-21T19:18:58.622Z,87.30
2018-10-21T19:22:02.862Z,87.00
2018-10-21T19:25:09.132Z,87.40
2018-10-21T19:28:13.303Z,87.20
2018-10-21T19:31:17.525Z,87.70
2018-10-21T19:34:22.100Z,88.10
2018-10-21T19:37:26.106Z,88.80
2018-10-21T19:40:30.297Z,88.60
2018-10-21T19:43:34.483Z,88.70
2018-10-21T19:46:38.587Z,89.30
2018-10-21T19:49:42.738Z,89.80
2018-10-21T19:52:46.910Z,88.90
2018-10-21T19:55:51.062Z,89.10
2018-10-21T19:58:55.219Z,89.60
2018-10-21T20:01:59.392Z,89.90
2018-10-21T20:05:03.514Z,89.20
2018-10-21T20:08:09.190Z,90.10
2018-10-21T20:11:14.369Z,89.80
2018-10-21T20:14:19.593Z,90.00
2018-10-21T20:17:24.932Z,90.10
2018-10-21T20:20:30.058Z,90.20
2018-10-21T20:23:35.317Z,90.40
2018-10-21T20:26:39.475Z,90.40
2018-10-21T20:29:43.633Z,90.40
2018-10-21T20:32:47.932Z,90.60
2018-10-21T20:35:52.067Z,90.60
2018-10-21T20:38:56.307Z,90.70
2018-10-21T20:42:00.509Z,91.00
2018-10-21T20:45:04.603Z,91.20
2018-10-21T20:48:08.846Z,91.00
2018-10-21T20:51:12.924Z,91.00
2018-10-21T20:54:17.368Z,91.10
2018-10-21T20:57:21.670Z,91.10
2018-10-21T21:00:25.826Z,91.00
2018-10-21T21:03:30.137Z,91.10
2018-10-21T21:06:34.283Z,90.90
2018-10-21T21:09:39.387Z,91.30
2018-10-21T21:12:43.575Z,91.50
2018-10-21T21:15:47.805Z,91.30
2018-10-21T21:18:52.394Z,91.50
2018-10-21T21:21:56.800Z,91.70
2018-10-21T21:25:01.395Z,92.20
2018-10-21T21:28:07.805Z,91.90
2018-10-21T21:31:12.097Z,91.70
2018-10-21T21:34:16.924Z,91.50
2018-10-21T21:37:20.975Z,91.60
2018-10-21T21:40:25.226Z,91.70
2018-10-21T21:43:29.746Z,91.70
2018-10-21T21:46:34.041Z,91.50
2018-10-21T21:49:38.174Z,92.00
2018-10-21T21:52:42.311Z,91.90
2018-10-21T21:55:46.474Z,92.00
2018-10-21T21:58:50.683Z,92.00
2018-10-21T22:01:54.950Z,92.30
2018-10-21T22:04:59.182Z,92.20
2018-10-21T22:08:03.362Z,92.10
2018-10-21T22:11:07.458Z,92.30
2018-10-21T22:14:11.827Z,92.30
2018-10-21T22:17:15.984Z,92.60
2018-10-21T22:20:20.126Z,92.70
2018-10-21T22:23:24.368Z,92.10
2018-10-21T22:26:28.507Z,92.10
2018-10-21T22:29:32.647Z,92.50
2018-10-21T22:32:36.852Z,92.60
2018-10-21T22:35:40.973Z,92.80
2018-10-21T22:38:45.111Z,92.50
2018-10-21T22:41:49.261Z,92.20
2018-10-21T22:44:53.400Z,92.30
2018-10-21T22:47:57.537Z,92.20
2018-10-21T22:51:01.678Z,92.50
2018-10-21T22:54:05.949Z,92.40
2018-10-21T22:57:15.433Z,92.60
2018-10-21T23:00:19.614Z,92.70
2018-10-21T23:03:23.712Z,92.60
2018-10-21T23:06:27.851Z,92.80
2018-10-21T23:09:31.986Z,93.00
2018-10-21T23:12:36.115Z,93.10
2018-10-21T23:15:40.242Z,92.90
2018-10-21T23:18:44.469Z,93.00
2018-10-21T23:21:48.522Z,93.00
2018-10-21T23:24:52.649Z,92.80
2018-10-21T23:27:56.831Z,92.80
2018-10-21T23:31:00.942Z,92.90
2018-10-21T23:34:05.579Z,92.60
2018-10-21T23:37:09.654Z,92.70
2018-10-21T23:40:13.916Z,93.00
2018-10-21T23:43:17.950Z,93.00
2018-10-21T23:46:28.645Z,93.00
2018-10-21T23:49:32.792Z,92.80
2018-10-21T23:52:36.942Z,93.10
2018-10-21T23:55:41.078Z,92.80
2018-10-21T23:58:45.225Z,92.90
